createdAt,value
2022-11-05T00:00:35.869Z,12.48
2022-11-05T00:03:22.058Z,13.88
2022-11-05T00:06:15.614Z,13.15
2022-11-05T00:09:02.721Z,14.15
2022-11-05T00:11:45.490Z,14.15
2022-11-05T00:14:40.473Z,15.13
2022-11-05T00:17:08.794Z,13.75
2022-11-05T00:19:37.037Z,14.80
2022-11-05T00:22:22.823Z,15.57
2022-11-05T00:25:10.759Z,16.48
2022-11-05T00:27:38.948Z,14.52
2022-11-05T00:30:09.303Z,15.50
2022-11-05T00:32:37.736Z,16.60
2022-11-05T00:35:06.929Z,15.23
2022-11-05T00:37:35.351Z,15.80
2022-11-05T00:40:06.746Z,15.10
2022-11-05T00:42:52.831Z,15.50
2022-11-05T00:45:21.165Z,15.45
2022-11-05T00:48:06.739Z,15.65
2022-11-05T00:50:35.699Z,14.95
2022-11-05T00:53:04.528Z,15.18
2022-11-05T00:55:38.086Z,15.65
2022-11-05T00:58:08.423Z,15.10
2022-11-05T01:00:38.302Z,14.70
2022-11-05T01:03:09.134Z,16.40
2022-11-05T01:05:41.173Z,15.52
2022-11-05T01:08:09.940Z,15.60
2022-11-05T01:10:42.778Z,15.95
2022-11-05T01:13:13.425Z,15.48
2022-11-05T01:15:42.219Z,15.60
2022-11-05T01:18:11.030Z,17.15
2022-11-05T01:20:40.458Z,16.38
2022-11-05T01:23:13.475Z,16.17
2022-11-05T01:25:45.770Z,16.65
2022-11-05T01:28:16.699Z,17.10
2022-11-05T01:30:45.106Z,15.80
2022-11-05T01:33:13.934Z,18.00
2022-11-05T01:35:42.590Z,16.98
2022-11-05T01:38:10.770Z,16.23
2022-11-05T01:40:43.606Z,17.38
2022-11-05T01:43:17.741Z,17.17
2022-11-05T01:45:49.481Z,16.90
2022-11-05T01:48:25.422Z,15.15
2022-11-05T01:50:59.380Z,16.65
2022-11-05T01:53:33.830Z,15.65
2022-11-05T01:56:09.146Z,13.88
2022-11-05T01:58:43.803Z,14.75
2022-11-05T02:01:13.545Z,14.05
2022-11-05T02:03:43.171Z,14.13
2022-11-05T02:06:12.986Z,13.98
2022-11-05T02:08:53.812Z,13.32
2022-11-05T02:11:22.391Z,12.43
2022-11-05T02:13:53.363Z,12.80
2022-11-05T02:16:35.035Z,12.98
2022-11-05T02:19:31.165Z,11.90
2022-11-05T02:22:28.883Z,13.60
2022-11-05T02:25:19.213Z,13.30
2022-11-05T02:28:16.436Z,13.75
2022-11-05T02:30:58.094Z,13.60
2022-11-05T02:33:36.912Z,14.20
2022-11-05T02:36:22.592Z,12.68
2022-11-05T02:39:02.645Z,12.23
2022-11-05T02:41:36.956Z,12.70
2022-11-05T02:44:16.859Z,11.88
2022-11-05T02:46:55.527Z,11.90
2022-11-05T02:49:34.043Z,11.90
2022-11-05T02:52:06.784Z,12.43
2022-11-05T02:54:38.977Z,12.48
2022-11-05T02:57:08.099Z,11.48
2022-11-05T02:59:36.697Z,13.48
2022-11-05T03:02:07.423Z,12.45
2022-11-05T03:04:37.237Z,12.52
2022-11-05T03:07:43.430Z,14.05
2022-11-05T03:10:21.764Z,12.77
2022-11-05T03:13:01.023Z,12.40
2022-11-05T03:15:42.795Z,12.52
2022-11-05T03:18:16.852Z,13.68
2022-11-05T03:20:51.145Z,14.27
2022-11-05T03:23:28.867Z,14.85
2022-11-05T03:26:06.795Z,15.13
2022-11-05T03:28:39.867Z,15.30
2022-11-05T03:31:09.890Z,14.90
2022-11-05T03:33:41.592Z,15.57
2022-11-05T03:36:16.152Z,15.13
2022-11-05T03:38:48.717Z,16.23
2022-11-05T03:41:18.381Z,15.52
2022-11-05T03:43:50.813Z,16.20
2022-11-05T03:46:25.840Z,16.17
2022-11-05T03:48:57.955Z,16.83
2022-11-05T03:51:37.635Z,15.77
2022-11-05T03:54:06.962Z,16.35
2022-11-05T03:56:40.759Z,16.17
2022-11-05T03:59:10.930Z,15.43
2022-11-05T04:01:40.619Z,15.52
2022-11-05T04:04:11.472Z,16.10
2022-11-05T04:06:57.252Z,17.30
2022-11-05T04:09:42.921Z,17.15
2022-11-05T04:12:30.031Z,18.10
2022-11-05T04:14:58.762Z,17.35
2022-11-05T04:17:26.079Z,17.85
2022-11-05T04:20:13.252Z,16.30
2022-11-05T04:22:58.920Z,17.42
2022-11-05T04:25:27.260Z,17.48
2022-11-05T04:28:00.368Z,16.58
2022-11-05T04:30:28.141Z,16.58
2022-11-05T04:33:02.005Z,16.60
2022-11-05T04:35:34.320Z,17.20
2022-11-05T04:38:07.132Z,18.02
2022-11-05T04:40:37.256Z,17.33
2022-11-05T04:43:10.651Z,18.23
2022-11-05T04:46:06.933Z,16.77
2022-11-05T04:48:35.373Z,17.08
2022-11-05T04:51:06.025Z,15.45
2022-11-05T04:53:35.679Z,16.63
2022-11-05T04:56:11.554Z,16.88
2022-11-05T04:58:41.175Z,15.90
2022-11-05T05:01:13.721Z,15.95
2022-11-05T05:03:42.265Z,15.05
2022-11-05T05:06:12.704Z,14.93
2022-11-05T05:08:41.105Z,14.35
2022-11-05T05:11:12.814Z,14.23
2022-11-05T05:13:41.009Z,13.77
2022-11-05T05:16:10.843Z,13.45
2022-11-05T05:18:45.042Z,13.05
2022-11-05T05:21:34.260Z,12.65
2022-11-05T05:24:02.748Z,12.20
2022-11-05T05:26:31.342Z,11.35
2022-11-05T05:29:00.013Z,11.50
2022-11-05T05:31:29.216Z,11.43
2022-11-05T05:33:59.406Z,12.55
2022-11-05T05:36:29.124Z,12.38
2022-11-05T05:38:57.369Z,11.98
2022-11-05T05:41:26.228Z,11.23
2022-11-05T05:43:54.755Z,11.25
2022-11-05T05:46:23.848Z,11.85
2022-11-05T05:48:53.334Z,11.93
2022-11-05T05:51:21.579Z,11.15
2022-11-05T05:53:53.715Z,12.93
2022-11-05T05:56:22.362Z,11.45
2022-11-05T05:58:51.026Z,11.52
2022-11-05T06:01:20.361Z,11.60
2022-11-05T06:03:51.633Z,11.57
2022-11-05T06:06:21.016Z,11.68
2022-11-05T06:08:49.563Z,12.13
2022-11-05T06:11:20.249Z,11.77
2022-11-05T06:13:48.715Z,11.25
2022-11-05T06:16:16.929Z,11.88
2022-11-05T06:18:45.732Z,12.05
2022-11-05T06:21:16.603Z,11.93
2022-11-05T06:23:46.538Z,12.48
2022-11-05T06:26:16.904Z,12.63
2022-11-05T06:28:47.340Z,13.00
2022-11-05T06:31:16.289Z,11.32
2022-11-05T06:33:45.007Z,11.85
2022-11-05T06:36:16.228Z,12.07
2022-11-05T06:38:44.746Z,11.85
2022-11-05T06:41:12.981Z,12.05
2022-11-05T06:43:41.809Z,13.70
2022-11-05T06:46:12.306Z,12.82
2022-11-05T06:48:41.695Z,11.48
2022-11-05T06:51:10.579Z,12.68
2022-11-05T06:53:39.105Z,13.02
2022-11-05T06:56:12.190Z,12.27
2022-11-05T06:58:40.440Z,12.60
2022-11-05T07:01:11.765Z,12.77
2022-11-05T07:03:40.653Z,13.43
2022-11-05T07:06:09.212Z,12.50
2022-11-05T07:08:40.221Z,12.60
2022-11-05T07:11:08.471Z,12.98
2022-11-05T07:13:36.697Z,13.57
2022-11-05T07:16:05.215Z,12.48
2022-11-05T07:18:36.689Z,12.25
2022-11-05T07:21:05.531Z,12.60
2022-11-05T07:23:33.797Z,12.80
2022-11-05T07:26:03.116Z,12.13
2022-11-05T07:28:31.384Z,12.88
2022-11-05T07:31:00.103Z,12.45
2022-11-05T07:33:32.307Z,12.55
2022-11-05T07:36:06.424Z,12.80
2022-11-05T07:38:34.807Z,13.05
2022-11-05T07:41:03.388Z,12.20
2022-11-05T07:43:31.663Z,11.98
2022-11-05T07:46:00.694Z,12.00
2022-11-05T07:48:29.405Z,11.77
2022-11-05T07:50:57.612Z,11.57
2022-11-05T07:53:27.346Z,12.73
2022-11-05T07:55:57.198Z,13.25
2022-11-05T07:58:25.481Z,11.63
2022-11-05T08:00:54.055Z,11.55
2022-11-05T08:03:22.626Z,11.02
2022-11-05T08:05:50.955Z,11.52
2022-11-05T08:08:22.343Z,11.20
2022-11-05T08:10:52.407Z,11.25
2022-11-05T08:13:20.643Z,10.40
2022-11-05T08:15:49.222Z,10.38
2022-11-05T08:18:19.424Z,10.15
2022-11-05T08:20:49.478Z,9.13
2022-11-05T08:23:17.873Z,9.32
2022-11-05T08:25:46.040Z,9.40
2022-11-05T08:28:15.626Z,9.18
2022-11-05T08:30:44.882Z,8.55
2022-11-05T08:33:15.528Z,9.98
2022-11-05T08:35:44.416Z,8.82
2022-11-05T08:38:17.562Z,8.65
2022-11-05T08:40:47.514Z,8.45
2022-11-05T08:43:19.976Z,7.35
2022-11-05T08:45:48.224Z,8.00
2022-11-05T08:48:18.393Z,7.90
2022-11-05T08:50:48.742Z,6.25
2022-11-05T08:53:17.252Z,6.35
2022-11-05T08:55:47.625Z,6.93
2022-11-05T08:58:17.526Z,6.75
2022-11-05T09:00:48.906Z,7.93
2022-11-05T09:03:18.058Z,6.60
2022-11-05T09:05:47.369Z,6.50
2022-11-05T09:08:18.293Z,5.50
2022-11-05T09:10:48.117Z,6.47
2022-11-05T09:13:19.291Z,6.45
2022-11-05T09:15:49.806Z,6.82
2022-11-05T09:18:20.479Z,6.28
2022-11-05T09:20:49.334Z,7.13
2022-11-05T09:23:17.847Z,6.60
2022-11-05T09:25:46.608Z,6.60
2022-11-05T09:28:17.453Z,5.20
2022-11-05T09:30:50.344Z,5.78
2022-11-05T09:33:21.023Z,5.40
2022-11-05T09:35:49.295Z,4.80
2022-11-05T09:38:17.565Z,4.32
2022-11-05T09:40:56.892Z,4.20
2022-11-05T09:43:31.628Z,4.03
2022-11-05T09:46:09.516Z,4.13
2022-11-05T09:48:39.772Z,3.75
2022-11-05T09:51:08.525Z,3.53
2022-11-05T09:53:40.933Z,3.47
2022-11-05T09:56:20.839Z,3.88
2022-11-05T09:58:52.596Z,2.92
2022-11-05T10:01:26.559Z,3.30
2022-11-05T10:03:59.215Z,2.90
2022-11-05T10:06:28.705Z,2.70
2022-11-05T10:09:03.820Z,2.70
2022-11-05T10:11:39.414Z,2.20
2022-11-05T10:14:15.353Z,2.17
2022-11-05T10:16:51.371Z,1.90
2022-11-05T10:19:25.138Z,1.80
2022-11-05T10:22:12.240Z,1.58
2022-11-05T10:24:43.719Z,1.77
2022-11-05T10:27:19.415Z,1.75
2022-11-05T10:29:49.320Z,2.40
2022-11-05T10:32:29.300Z,1.77
2022-11-05T10:35:01.173Z,1.98
2022-11-05T10:37:32.928Z,2.42
2022-11-05T10:40:03.551Z,2.17
2022-11-05T10:42:45.996Z,2.03
2022-11-05T10:45:24.849Z,2.10
2022-11-05T10:48:05.280Z,1.88
2022-11-05T10:50:34.072Z,1.77
2022-11-05T10:53:12.514Z,1.80
2022-11-05T10:55:45.575Z,2.03
2022-11-05T10:58:23.585Z,2.00
2022-11-05T11:01:08.997Z,2.08
2022-11-05T11:03:43.187Z,2.10
2022-11-05T11:06:21.728Z,2.08
2022-11-05T11:08:51.355Z,2.20
2022-11-05T11:11:34.611Z,2.15
2022-11-05T11:14:05.854Z,2.15
2022-11-05T11:16:38.157Z,1.98
2022-11-05T11:19:26.986Z,1.60
2022-11-05T11:22:15.367Z,2.20
2022-11-05T11:24:45.184Z,2.05
2022-11-05T11:27:17.590Z,1.63
2022-11-05T11:29:49.866Z,1.80
2022-11-05T11:32:20.899Z,1.60
2022-11-05T11:34:58.155Z,1.73
2022-11-05T11:37:30.218Z,1.83
2022-11-05T11:40:03.421Z,2.35
2022-11-05T11:42:34.949Z,1.80
2022-11-05T11:45:07.704Z,2.00
2022-11-05T11:47:36.005Z,1.65
2022-11-05T11:50:05.931Z,1.88
2022-11-05T11:52:36.081Z,1.50
2022-11-05T11:55:23.434Z,1.42
2022-11-05T11:57:53.451Z,1.67
2022-11-05T12:00:26.884Z,1.35
2022-11-05T12:03:16.196Z,1.73
2022-11-05T12:05:51.435Z,1.20
2022-11-05T12:08:33.058Z,1.20
2022-11-05T12:11:08.336Z,1.42
2022-11-05T12:14:04.186Z,1.55
2022-11-05T12:16:59.545Z,1.45
2022-11-05T12:19:43.164Z,1.45
2022-11-05T12:22:24.471Z,1.30
2022-11-05T12:25:26.002Z,1.48
2022-11-05T12:28:13.183Z,1.38
2022-11-05T12:30:49.980Z,1.33
2022-11-05T12:33:28.330Z,1.35
2022-11-05T12:36:13.431Z,1.33
2022-11-05T12:39:00.894Z,1.20
2022-11-05T12:41:34.309Z,1.25
2022-11-05T12:44:16.843Z,1.23
2022-11-05T12:46:54.929Z,1.35
2022-11-05T12:49:44.558Z,1.35
2022-11-05T12:52:26.739Z,1.25
2022-11-05T12:55:04.235Z,1.48
2022-11-05T12:57:37.337Z,1.75
2022-11-05T13:00:10.429Z,1.17
2022-11-05T13:02:47.159Z,1.40
2022-11-05T13:05:18.194Z,1.33
2022-11-05T13:07:54.670Z,1.30
2022-11-05T13:10:32.956Z,1.33
2022-11-05T13:13:12.411Z,1.10
2022-11-05T13:15:48.876Z,1.40
2022-11-05T13:18:22.521Z,1.08
2022-11-05T13:20:53.192Z,1.10
2022-11-05T13:23:28.654Z,1.13
2022-11-05T13:26:15.609Z,1.30
2022-11-05T13:28:55.172Z,1.50
2022-11-05T13:31:28.858Z,1.10
2022-11-05T13:33:58.788Z,0.98
2022-11-05T13:36:49.345Z,1.30
2022-11-05T13:39:22.837Z,1.65
2022-11-05T13:42:14.935Z,1.55
2022-11-05T13:45:02.079Z,1.30
2022-11-05T13:47:51.194Z,1.35
2022-11-05T13:50:56.236Z,1.30
2022-11-05T13:53:50.073Z,1.70
2022-11-05T13:56:46.613Z,1.60
2022-11-05T13:59:53.228Z,1.60
2022-11-05T14:02:25.065Z,1.70
2022-11-05T14:05:00.763Z,1.30
2022-11-05T14:07:32.168Z,1.88
2022-11-05T14:10:02.880Z,1.63
2022-11-05T14:12:34.579Z,1.52
2022-11-05T14:15:09.596Z,1.60
2022-11-05T14:17:57.539Z,1.50
2022-11-05T14:20:40.009Z,1.30
2022-11-05T14:23:48.087Z,1.58
2022-11-05T14:26:20.822Z,1.88
2022-11-05T14:29:08.577Z,2.15
2022-11-05T14:32:12.291Z,1.60
2022-11-05T14:34:55.879Z,1.67
2022-11-05T14:37:30.283Z,1.42
2022-11-05T14:40:04.764Z,1.67
2022-11-05T14:42:33.599Z,2.00
2022-11-05T14:45:24.409Z,2.10
2022-11-05T14:47:57.810Z,1.90
2022-11-05T14:50:37.443Z,1.98
2022-11-05T14:53:14.356Z,1.70
2022-11-05T14:55:44.698Z,1.75
2022-11-05T14:58:32.247Z,2.10
2022-11-05T15:01:01.305Z,2.08
2022-11-05T15:03:46.749Z,2.10
2022-11-05T15:06:31.209Z,1.90
2022-11-05T15:09:16.664Z,1.92
2022-11-05T15:11:53.442Z,2.10
2022-11-05T15:14:28.215Z,2.17
2022-11-05T15:16:59.632Z,1.92
2022-11-05T15:19:32.774Z,2.25
2022-11-05T15:22:05.618Z,2.30
2022-11-05T15:24:35.944Z,1.95
2022-11-05T15:27:12.871Z,2.17
2022-11-05T15:29:43.000Z,1.85
2022-11-05T15:32:18.133Z,2.05
2022-11-05T15:34:54.309Z,2.00
2022-11-05T15:37:25.229Z,1.77
2022-11-05T15:39:55.385Z,2.10
2022-11-05T15:42:26.338Z,1.60
2022-11-05T15:44:56.593Z,1.85
2022-11-05T15:47:26.605Z,2.20
2022-11-05T15:49:58.505Z,2.00
2022-11-05T15:52:34.783Z,1.90
2022-11-05T15:55:23.744Z,2.40
2022-11-05T15:57:55.378Z,1.90
2022-11-05T16:00:25.559Z,1.70
2022-11-05T16:02:58.542Z,2.20
2022-11-05T16:05:31.005Z,2.28
2022-11-05T16:08:00.372Z,1.70
2022-11-05T16:10:31.898Z,1.73
2022-11-05T16:13:23.109Z,2.10
2022-11-05T16:15:55.528Z,1.92
2022-11-05T16:18:26.721Z,1.88
2022-11-05T16:21:07.325Z,2.30
2022-11-05T16:23:44.923Z,2.13
2022-11-05T16:27:01.181Z,2.25
2022-11-05T16:29:29.396Z,2.47
2022-11-05T16:32:00.171Z,2.17
2022-11-05T16:34:36.684Z,1.83
2022-11-05T16:37:09.062Z,1.65
2022-11-05T16:39:37.866Z,2.88
2022-11-05T16:42:40.013Z,2.08
2022-11-05T16:45:11.550Z,2.60
2022-11-05T16:47:41.098Z,2.03
2022-11-05T16:50:22.823Z,1.95
2022-11-05T16:52:54.145Z,2.10
2022-11-05T16:55:22.594Z,2.00
2022-11-05T16:57:53.653Z,2.25
2022-11-05T17:00:23.275Z,2.53
2022-11-05T17:02:52.220Z,2.78
2022-11-05T17:05:28.752Z,2.25
2022-11-05T17:08:00.727Z,2.38
2022-11-05T17:10:29.349Z,2.75
2022-11-05T17:13:01.132Z,2.35
2022-11-05T17:15:33.528Z,2.47
2022-11-05T17:18:01.648Z,3.08
2022-11-05T17:20:40.439Z,2.97
2022-11-05T17:23:13.328Z,2.90
2022-11-05T17:25:42.090Z,2.47
2022-11-05T17:28:11.624Z,2.30
2022-11-05T17:30:41.992Z,2.47
2022-11-05T17:33:11.853Z,3.00
2022-11-05T17:35:40.855Z,2.58
2022-11-05T17:38:10.677Z,3.20
2022-11-05T17:40:39.717Z,2.72
2022-11-05T17:43:09.241Z,2.78
2022-11-05T17:45:43.243Z,2.70
2022-11-05T17:48:11.675Z,2.55
2022-11-05T17:50:43.767Z,2.75
2022-11-05T17:53:14.709Z,4.38
2022-11-05T17:55:44.364Z,2.63
2022-11-05T17:58:13.180Z,2.90
2022-11-05T18:00:43.230Z,2.58
2022-11-05T18:03:12.298Z,3.08
2022-11-05T18:05:45.226Z,2.70
2022-11-05T18:08:15.362Z,2.88
2022-11-05T18:10:43.549Z,3.33
2022-11-05T18:13:13.005Z,2.88
2022-11-05T18:15:42.008Z,2.85
2022-11-05T18:18:11.337Z,3.10
2022-11-05T18:20:40.283Z,2.90
2022-11-05T18:23:10.245Z,2.85
2022-11-05T18:25:41.800Z,2.50
2022-11-05T18:28:11.342Z,5.55
2022-11-05T18:30:40.403Z,4.30
2022-11-05T18:33:08.683Z,2.67
2022-11-05T18:35:43.142Z,3.17
2022-11-05T18:38:11.766Z,2.90
2022-11-05T18:40:41.897Z,2.78
2022-11-05T18:43:10.512Z,3.70
2022-11-05T18:45:40.345Z,2.97
2022-11-05T18:48:09.151Z,2.80
2022-11-05T18:50:39.753Z,3.45
2022-11-05T18:53:07.943Z,3.42
2022-11-05T18:55:36.664Z,3.63
2022-11-05T18:58:08.203Z,3.25
2022-11-05T19:00:36.892Z,3.17
2022-11-05T19:03:07.117Z,3.30
2022-11-05T19:05:35.638Z,3.22
2022-11-05T19:08:03.950Z,3.70
2022-11-05T19:10:32.596Z,3.45
2022-11-05T19:13:01.682Z,3.20
2022-11-05T19:15:31.882Z,3.10
2022-11-05T19:18:01.111Z,3.13
2022-11-05T19:20:33.658Z,3.20
2022-11-05T19:23:05.364Z,2.63
2022-11-05T19:25:34.258Z,3.22
2022-11-05T19:28:02.913Z,3.05
2022-11-05T19:30:32.987Z,2.80
2022-11-05T19:33:01.412Z,2.90
2022-11-05T19:35:30.211Z,3.60
2022-11-05T19:37:58.871Z,2.70
2022-11-05T19:40:28.552Z,2.60
2022-11-05T19:42:58.878Z,2.63
2022-11-05T19:45:45.255Z,2.90
2022-11-05T19:48:19.418Z,2.47
2022-11-05T19:50:50.146Z,3.03
2022-11-05T19:53:18.704Z,2.72
2022-11-05T19:55:47.118Z,2.80
2022-11-05T19:58:16.603Z,2.70
2022-11-05T20:00:46.869Z,3.05
2022-11-05T20:03:19.419Z,2.83
2022-11-05T20:05:48.374Z,2.67
2022-11-05T20:08:16.670Z,2.88
2022-11-05T20:10:46.392Z,2.85
2022-11-05T20:13:19.788Z,3.00
2022-11-05T20:15:49.033Z,2.95
2022-11-05T20:18:19.060Z,2.80
2022-11-05T20:20:47.929Z,2.92
2022-11-05T20:23:17.475Z,3.15
2022-11-05T20:25:46.284Z,2.95
2022-11-05T20:28:15.996Z,3.13
2022-11-05T20:30:44.633Z,3.83
2022-11-05T20:33:13.197Z,2.95
2022-11-05T20:35:43.329Z,3.10
2022-11-05T20:38:13.184Z,3.20
2022-11-05T20:40:42.160Z,3.30
2022-11-05T20:43:11.099Z,3.38
2022-11-05T20:45:39.962Z,3.30
2022-11-05T20:48:09.678Z,3.42
2022-11-05T20:50:43.589Z,2.80
2022-11-05T20:53:12.639Z,3.30
2022-11-05T20:55:42.622Z,3.50
2022-11-05T20:58:11.106Z,3.38
2022-11-05T21:00:40.557Z,2.90
2022-11-05T21:03:08.909Z,3.25
2022-11-05T21:05:37.806Z,3.08
2022-11-05T21:08:08.509Z,3.15
2022-11-05T21:10:36.808Z,3.40
2022-11-05T21:13:08.249Z,3.17
2022-11-05T21:15:37.135Z,3.47
2022-11-05T21:18:07.938Z,3.40
2022-11-05T21:20:36.564Z,3.25
2022-11-05T21:23:05.268Z,3.22
2022-11-05T21:25:35.017Z,3.33
2022-11-05T21:28:03.520Z,3.30
2022-11-05T21:30:31.763Z,3.17
2022-11-05T21:33:00.020Z,3.22
2022-11-05T21:35:28.374Z,3.45
2022-11-05T21:37:56.937Z,3.67
2022-11-05T21:40:25.840Z,3.70
2022-11-05T21:42:55.338Z,3.60
2022-11-05T21:45:23.715Z,3.50
2022-11-05T21:47:52.723Z,3.63
2022-11-05T21:50:41.255Z,3.63
2022-11-05T21:53:31.590Z,3.63
2022-11-05T21:56:18.200Z,3.28
2022-11-05T21:59:04.895Z,3.55
2022-11-05T22:01:33.439Z,3.92
2022-11-05T22:04:29.477Z,3.97
2022-11-05T22:06:59.158Z,3.38
2022-11-05T22:09:28.434Z,4.03
2022-11-05T22:11:56.926Z,3.80
2022-11-05T22:14:26.745Z,4.22
2022-11-05T22:16:55.495Z,3.85
2022-11-05T22:19:24.710Z,4.10
2022-11-05T22:21:53.316Z,3.80
2022-11-05T22:24:22.453Z,3.70
2022-11-05T22:26:51.470Z,5.20
2022-11-05T22:29:19.789Z,3.63
2022-11-05T22:31:49.993Z,4.80
2022-11-05T22:34:18.255Z,4.63
2022-11-05T22:36:46.623Z,4.30
2022-11-05T22:39:15.808Z,4.95
2022-11-05T22:41:44.886Z,4.35
2022-11-05T22:44:14.121Z,4.40
2022-11-05T22:46:42.785Z,4.70
2022-11-05T22:49:15.784Z,4.00
2022-11-05T22:51:53.459Z,4.10
2022-11-05T22:54:24.692Z,4.30
2022-11-05T22:57:00.845Z,4.75
2022-11-05T22:59:45.228Z,4.97
2022-11-05T23:02:17.260Z,5.45
2022-11-05T23:04:49.695Z,6.38
2022-11-05T23:07:35.435Z,5.65
2022-11-05T23:10:36.185Z,4.68
2022-11-05T23:13:05.123Z,5.38
2022-11-05T23:15:51.058Z,5.28
2022-11-05T23:18:36.688Z,5.25
2022-11-05T23:21:25.306Z,4.60
2022-11-05T23:26:58.066Z,5.20
2022-11-05T23:29:27.966Z,4.75
2022-11-05T23:32:19.600Z,4.63
2022-11-05T23:34:51.542Z,5.57
2022-11-05T23:37:50.152Z,5.38
2022-11-05T23:40:22.393Z,5.88
2022-11-05T23:43:08.789Z,5.72
2022-11-05T23:45:57.321Z,5.47
2022-11-05T23:48:49.347Z,6.60
2022-11-05T23:51:34.275Z,6.47
2022-11-05T23:54:03.921Z,5.90
2022-11-05T23:56:33.704Z,5.90
2022-11-05T23:59:02.062Z,5.90
